CST,Max TemperatureF,Mean TemperatureF,Min TemperatureF,Max Dew PointF,MeanDew PointF,Min DewpointF,Max Humidity, Mean Humidity, Min Humidity, Max Sea Level PressureIn, Mean Sea Level PressureIn, Min Sea Level PressureIn, Max VisibilityMiles, Mean VisibilityMiles, Min VisibilityMiles, Max Wind SpeedMPH, Mean Wind SpeedMPH, Max Gust SpeedMPH,PrecipitationIn, CloudCover, Events, WindDirDegrees
2014-1-1,51,37,22,36,26,19,92,64,36,30.32,30.18,29.96,10,10,9,13,5,18,0.01,1,Rain,165
2014-1-2,41,29,17,40,25,10,100,83,65,30.44,30.10,29.87,10,7,0,25,9,34,0.03,7,Fog-Rain-Snow,326
2014-1-3,27,19,11,13,10,8,88,69,50,30.57,30.44,30.27,10,10,10,14,6,17,0.00,0,,99
2014-1-4,46,32,17,25,16,10,74,51,28,30.28,30.16,30.05,10,10,10,24,10,30,0.00,1,,172
2014-1-5,53,35,16,49,31,9,93,76,59,30.16,29.83,29.61,10,7,2,32,15,44,0.38,7,Rain-Snow,250
2014-1-6,16,9,2,7,-4,-10,76,63,50,30.58,30.42,30.17,10,10,2,25,14,35,T,4,Snow,302
2014-1-7,21,11,1,5,-1,-7,87,64,41,30.61,30.52,30.41,10,10,10,16,6,21,0.00,0,,201
2014-1-8,39,28,17,23,13,5,64,50,35,30.52,30.45,30.40,10,10,10,13,6,15,0.00,2,,187
2014-1-9,41,34,30,36,27,19,85,73,45,30.46,30.37,30.23,10,10,9,9,4,,0.07,8,Rain,145
2014-1-10,57,47,37,52,45,34,100,88,77,30.22,29.96,29.70,10,8,1,20,7,25,0.32,8,Rain-Thunderstorm,168
2014-1-11,55,47,39,54,43,34,93,74,54,29.96,29.74,29.61,10,9,4,22,10,30,0.48,4,Rain,242
2014-1-12,68,48,28,35,31,28,100,62,24,30.12,30.02,29.93,10,7,0,17,7,23,0.00,0,Fog,192
2014-1-13,71,58,44,50,46,31,100,66,32,29.91,29.83,29.75,10,7,0,24,11,31,0.52,7,Fog-Rain,235
2014-1-14,57,44,30,43,34,26,100,69,38,30.06,29.93,29.85,10,7,0,29,8,35,0.02,2,Fog-Rain,254
2014-1-15,35,28,21,23,19,16,81,70,58,30.18,30.14,30.06,10,10,6,15,6,21,T,4,Snow,309
2014-1-16,46,33,20,34,22,15,89,64,38,30.10,29.93,29.80,10,10,10,22,9,29,0.01,5,Rain,200
2014-1-17,35,29,21,31,16,7,89,63,46,30.18,30.02,29.83,10,10,9,20,10,32,0.00,7,Snow,283
2014-1-18,45,31,17,29,17,10,80,56,31,30.16,29.98,29.78,10,10,10,21,8,25,0.00,5,,213
2014-1-19,46,39,32,29,25,22,82,58,38,30.14,30.02,29.88,10,10,10,22,10,30,0.00,3,,259
2014-1-20,60,48,36,31,27,24,76,52,28,29.97,29.90,29.86,10,10,10,16,7,25,0.00,0,,266
2014-1-21,37,26,12,31,18,6,86,74,57,30.27,30.06,29.85,10,8,2,30,14,44,0.00,6,Snow,325
2014-1-22,28,19,10,12,9,6,81,65,41,30.25,30.19,30.09,10,10,10,13,7,,0.00,5,,227
2014-1-23,19,14,7,14,3,-6,81,61,35,30.76,30.56,30.24,10,10,10,21,9,21,0.00,1,,335
2014-1-24,28,15,1,2,-1,-5,87,55,23,30.76,30.47,30.05,10,10,10,20,9,28,0.00,0,,212
2014-1-25,49,35,21,24,11,0,50,38,26,30.02,29.90,29.81,10,10,8,24,12,32,T,5,Snow,262
2014-1-26,63,40,17,32,22,5,67,49,30,29.99,29.79,29.67,10,10,10,23,12,37,0.00,1,,202
2014-1-27,52,34,16,33,6,-8,69,47,31,30.44,30.21,29.78,10,10,10,33,16,44,0.00,3,,351
2014-1-28,19,13,5,-1,-5,-9,73,49,29,30.50,30.44,30.39,10,10,10,15,9,17,0.00,3,,10
2014-1-29,28,14,1,2,-1,-4,85,54,27,30.48,30.41,30.33,10,8,2,7,1,,0.00,0,,228
2014-1-30,42,25,8,6,2,-1,73,45,17,30.32,30.17,30.04,10,10,10,21,9,25,0.00,0,,179
2014-1-31,46,39,31,33,19,5,70,49,27,30.16,30.08,30.01,10,10,10,12,6,15,0.00,7,,163